Departure
Concord-Padgett Regional Airport
Concord, US
cloud Weather
- Wind
- 0° / 0 kt
- Visibility
- 10 SM
- Ceiling
- CLR
- Temp / Dew
- 33°C / 19°C
- Altimeter
- 30.08 inHg
Obs: 2026-09-01T22:55:00.000Z
Raw METAR
METAR KJQF 012255Z 00000KT 10SM CLR 33/19 A3008
route Route
Departure
Concord, US
Obs: 2026-09-01T22:55:00.000Z
METAR KJQF 012255Z 00000KT 10SM CLR 33/19 A3008
Arrival
Pinellas Park, US
Obs: 2026-09-01T21:42:00.000Z
SPECI KPIE 012142Z 07020G38KT 10SM +TSRA BKN008 BKN030 OVC055 25/23 A2999 RMK AO2 PK WND 06039/2132 WSHFT 2120 LTG DSNT N-E RAB27 TSB21 P0081 T02500233 $ TAF KPIE 011732Z 0118/0218 VRB03KT P6SM BKN250 FM011900 01005KT P6SM VCTS SCT030CB BKN250 TEMPO 0121/0124 VRB25G35KT 2SM +TSRA BKN030CB FM020100 VRB03KT P6SM OVC250
| Airline | Flights shown |
|---|---|
| Allegiant Air | 44 |
| Date | Flight | Aircraft | Takeoff | Landing | Duration | Arr Δ |
|---|---|---|---|---|---|---|
| 2026-07-22 | AAY1001 | A1B4B2 | Jul 22, 18:45 UTC | Jul 22, 21:05 UTC | 2h 20m | - |
| 2026-07-21 | AAY1844 | A26F08 | Jul 21, 14:10 UTC | Jul 21, 15:30 UTC | 1h 20m | - |
| 2026-07-21 | AAY1051 | AB3D40 | Jul 21, 01:25 UTC | Jul 21, 03:45 UTC | 2h 20m | - |
| 2026-07-18 | AAY1095 | AB1978 | Jul 18, 19:05 UTC | Jul 18, 20:25 UTC | 1h 20m | - |
| 2026-07-11 | AAY1095 | AB40F7 | Jul 11, 21:00 UTC | Jul 11, 22:20 UTC | 1h 20m | - |
| 2026-07-09 | AAY2605 | AB2854 | Jul 9, 20:30 UTC | Jul 9, 21:50 UTC | 1h 20m | - |
| 2026-07-02 | AAY1098 | AB40F7 | Jul 2, 18:05 UTC | Jul 2, 19:25 UTC | 1h 20m | - |
| 2026-07-01 | AAY1001 | AB2854 | Jul 1, 19:00 UTC | Jul 1, 21:30 UTC | 2h 30m | - |
| 2026-06-30 | AAY1098 | AB2854 | Jun 30, 16:15 UTC | Jun 30, 18:40 UTC | 2h 25m | - |
| 2026-06-30 | AAY1844 | A2803D | Jun 30, 13:10 UTC | Jun 30, 14:30 UTC | 1h 20m | - |
| 2026-06-29 | AAY1001 | AB3D40 | Jun 29, 16:15 UTC | Jun 29, 18:44 UTC | 2h 30m | - |
| 2026-06-29 | AAY1098 | AB35D2 | Jun 29, 13:14 UTC | Jun 29, 14:39 UTC | 1h 25m | - |
| 2026-06-29 | AAY1844 | A2803D | Jun 29, 02:50 UTC | Jun 29, 04:14 UTC | 1h 25m | - |
| 2026-06-28 | AAY1098 | A3B4C7 | Jun 28, 19:14 UTC | Jun 28, 20:29 UTC | 1h 15m | - |
| 2026-06-27 | AAY1099 | AB2854 | Jun 27, 13:49 UTC | Jun 27, 15:10 UTC | 1h 20m | - |
| 2026-06-25 | AAY1001 | AB40F7 | Jun 25, 14:44 UTC | Jun 25, 16:50 UTC | 2h 5m | - |
| 2026-06-24 | AAY1001 | A390FF | Jun 24, 19:04 UTC | Jun 24, 21:24 UTC | 2h 20m | - |
| 2026-06-23 | AAY1098 | AB35D2 | Jun 23, 16:09 UTC | Jun 23, 18:25 UTC | 2h 15m | - |
| 2026-06-23 | AAY1844 | A2803D | Jun 23, 13:05 UTC | Jun 23, 14:35 UTC | 1h 30m | - |
| 2026-06-22 | AAY1001 | AB40F7 | Jun 22, 15:50 UTC | Jun 22, 18:19 UTC | 2h 30m | - |
| 2026-06-22 | AAY1098 | AB35D2 | Jun 22, 12:59 UTC | Jun 22, 14:19 UTC | 1h 20m | - |
| 2026-06-22 | AAY1844 | A170D9 | Jun 22, 01:44 UTC | Jun 22, 03:19 UTC | 1h 35m | - |
| 2026-06-21 | AAY1042 | AB40F7 | Jun 21, 20:24 UTC | Jun 21, 21:49 UTC | 1h 25m | - |
| 2026-06-21 | AAY1098 | A34201 | Jun 21, 18:39 UTC | Jun 21, 20:00 UTC | 1h 20m | - |
| 2026-06-20 | AAY1051 | AB15C1 | Jun 20, 11:44 UTC | Jun 20, 14:19 UTC | 2h 35m | - |
| 2026-06-19 | AAY1092 | A1C230 | Jun 19, 13:20 UTC | Jun 19, 14:44 UTC | 1h 25m | - |
| 2026-06-19 | AAY2719 | A32800 | Jun 19, 10:19 UTC | Jun 19, 11:54 UTC | 1h 35m | - |
| 2026-06-18 | AAY1001 | AB35D2 | Jun 18, 14:40 UTC | Jun 18, 16:45 UTC | 2h 5m | - |
| 2026-06-17 | AAY1001 | A24B40 | Jun 17, 19:20 UTC | Jun 17, 21:50 UTC | 2h 30m | - |
| 2026-06-16 | JTL250 | A2592E | Jun 16, 17:19 UTC | Jun 16, 18:45 UTC | 1h 25m | - |
| 2026-06-16 | AAY1844 | A272BF | Jun 16, 13:00 UTC | Jun 16, 14:25 UTC | 1h 25m | - |
| 2026-06-15 | AAY1001 | AB1D2F | Jun 15, 16:55 UTC | Jun 15, 19:10 UTC | 2h 15m | - |
| 2026-06-15 | AAY1098 | A3B4C7 | Jun 15, 14:40 UTC | Jun 15, 15:59 UTC | 1h 20m | - |
| 2026-06-15 | AAY2719 | A38223 | Jun 15, 10:15 UTC | Jun 15, 11:54 UTC | 1h 40m | - |
| 2026-06-15 | AAY1844 | A2C574 | Jun 15, 01:35 UTC | Jun 15, 03:05 UTC | 1h 30m | - |
| 2026-06-14 | AAY1098 | A3B4C7 | Jun 14, 18:55 UTC | Jun 14, 20:15 UTC | 1h 20m | - |
| 2026-06-14 | AAY1092 | AB44AE | Jun 14, 10:15 UTC | Jun 14, 12:35 UTC | 2h 20m | - |
| 2026-06-13 | AAY1051 | AB3D40 | Jun 13, 22:00 UTC | Jun 14, 00:05 UTC | 2h 5m | - |
| 2026-06-12 | AAY1092 | A2F0AA | Jun 12, 13:05 UTC | Jun 12, 14:30 UTC | 1h 25m | - |
| 2026-06-12 | AAY2719 | A38223 | Jun 12, 10:05 UTC | Jun 12, 11:40 UTC | 1h 35m | - |
| 2026-06-12 | AAY1001 | AB35D2 | Jun 12, 01:20 UTC | Jun 12, 03:20 UTC | 2h 0m | - |
| 2026-06-10 | AAY1001 | A1A21F | Jun 10, 23:20 UTC | Jun 11, 01:50 UTC | 2h 30m | - |
| 2026-06-09 | AAY1844 | A170D9 | Jun 9, 13:05 UTC | Jun 9, 14:40 UTC | 1h 35m | - |
| 2026-06-08 | AAY1001 | AB3D40 | Jun 8, 15:50 UTC | Jun 8, 18:20 UTC | 2h 30m | - |
| 2026-06-08 | AAY1098 | AB44AE | Jun 8, 13:25 UTC | Jun 8, 14:50 UTC | 1h 25m | - |
| 2026-06-08 | AAY2719 | A1D87A | Jun 8, 10:15 UTC | Jun 8, 11:50 UTC | 1h 35m | - |
| 2026-06-07 | AAY1098 | A2B2E1 | Jun 7, 20:05 UTC | Jun 7, 21:20 UTC | 1h 15m | - |
| 2026-06-07 | AAY1844 | A1836C | Jun 7, 16:40 UTC | Jun 7, 18:05 UTC | 1h 25m | - |
| 2026-06-07 | AAY1092 | AB15C1 | Jun 7, 10:10 UTC | Jun 7, 12:45 UTC | 2h 35m | - |
| 2026-06-06 | AAY1051 | AB35D2 | Jun 6, 11:35 UTC | Jun 6, 14:14 UTC | 2h 40m | - |